Time;durP1;ratioP1;P1;durP2;ratioP2;P2;SDS_P1;SDS_P2;PMS_P1;PMS_P2;Temp;Humidity;BMP_temperature;BMP_pressure;BME280_temperature;BME280_humidity;BME280_pressure;Samples;Min_cycle;Max_cycle;Signal;HPM_P1;HPM_P2
2022/11/05 00:10:47;;;;;;;8.40;3.92;;;10.50;81.50;;;;;;5053587;28;20052;-76
2022/11/05 00:18:43;;;;;;;7.38;3.60;;;10.50;81.70;;;;;;5053422;28;20094;-76
2022/11/05 00:25:12;;;;;;;4.60;3.28;;;10.60;81.80;;;;;;5053219;28;20034;-76
2022/11/05 00:26:39;;;;;;;4.68;2.90;;;10.60;81.70;;;;;;5053401;28;20064;-76
2022/11/05 00:29:04;;;;;;;7.43;3.33;;;10.50;82.10;;;;;;5035674;28;20037;-76
2022/11/05 00:31:31;;;;;;;7.38;3.20;;;10.50;82.20;;;;;;5053172;28;20034;-76
2022/11/05 00:33:56;;;;;;;5.13;2.90;;;10.50;82.40;;;;;;5053073;28;20037;-76
2022/11/05 00:36:22;;;;;;;4.75;2.83;;;10.50;82.60;;;;;;5053195;28;20029;-76
2022/11/05 00:38:48;;;;;;;7.85;2.90;;;10.50;82.40;;;;;;5053041;28;20086;-76
2022/11/05 00:41:13;;;;;;;6.18;2.70;;;10.50;82.20;;;;;;5053021;28;20021;-76
2022/11/05 00:46:23;;;;;;;6.60;2.40;;;10.50;82.00;;;;;;5053086;28;20068;-76
2022/11/05 00:51:33;;;;;;;3.72;2.15;;;10.50;81.60;;;;;;5052969;28;20061;-76
2022/11/05 00:53:58;;;;;;;3.95;2.22;;;10.40;81.50;;;;;;5035543;28;20030;-76
2022/11/05 00:56:24;;;;;;;5.82;2.63;;;10.40;81.70;;;;;;5056500;28;20036;-76
2022/11/05 00:58:49;;;;;;;4.22;2.45;;;10.30;81.80;;;;;;5056800;28;20026;-76
2022/11/05 01:01:15;;;;;;;3.88;2.50;;;10.30;81.90;;;;;;5056774;28;20085;-76
2022/11/05 01:03:41;;;;;;;5.35;2.47;;;10.30;82.30;;;;;;5056731;28;20038;-76
2022/11/05 01:06:10;;;;;;;4.75;2.33;;;10.30;82.20;;;;;;5022832;28;20025;-76
2022/11/05 01:08:36;;;;;;;5.78;2.90;;;10.30;81.90;;;;;;5056578;28;20018;-76
2022/11/05 01:11:33;;;;;;;5.95;2.88;;;10.30;81.90;;;;;;5056585;28;20022;-76
2022/11/05 01:14:07;;;;;;;7.03;3.00;;;10.20;82.20;;;;;;5056427;28;20042;-76
2022/11/05 01:16:34;;;;;;;5.00;2.83;;;10.20;82.00;;;;;;5056487;28;20041;-76
2022/11/05 01:19:00;;;;;;;7.22;3.70;;;10.10;82.00;;;;;;5056433;28;20385;-76
2022/11/05 01:21:26;;;;;;;5.40;2.95;;;10.10;82.00;;;;;;5056419;28;20021;-76
2022/11/05 01:23:52;;;;;;;7.53;3.80;;;10.10;82.10;;;;;;5056366;28;20033;-76
2022/11/05 01:26:18;;;;;;;6.60;3.45;;;10.10;82.40;;;;;;5038945;28;20069;-76
2022/11/05 01:28:43;;;;;;;5.18;3.08;;;10.00;82.50;;;;;;5056280;28;20033;-76
2022/11/05 01:31:09;;;;;;;5.10;3.22;;;10.00;82.20;;;;;;5038741;28;20026;-76
2022/11/05 01:33:35;;;;;;;5.20;3.35;;;10.00;81.80;;;;;;5056196;28;20025;-76
2022/11/05 01:36:00;;;;;;;6.25;2.58;;;10.00;81.60;;;;;;5055120;28;20029;-76
2022/11/05 01:38:26;;;;;;;4.45;2.70;;;9.90;81.20;;;;;;5056082;28;20053;-76
2022/11/05 01:40:52;;;;;;;5.07;2.92;;;9.80;81.40;;;;;;5055109;28;20097;-76
2022/11/05 01:43:22;;;;;;;5.25;2.53;;;9.80;81.60;;;;;;5056003;28;20032;-76
2022/11/05 01:45:56;;;;;;;5.13;2.78;;;9.80;81.70;;;;;;5056023;28;20021;-76
2022/11/05 01:48:33;;;;;;;5.82;2.95;;;9.80;81.50;;;;;;5055958;28;20025;-76
2022/11/05 01:51:07;;;;;;;4.50;2.90;;;9.80;81.50;;;;;;5056024;28;20036;-76
2022/11/05 01:53:44;;;;;;;5.22;2.50;;;9.80;81.60;;;;;;5054791;28;20028;-76
2022/11/05 01:56:20;;;;;;;4.88;2.60;;;9.80;81.80;;;;;;5054806;28;20017;-76
2022/11/05 01:59:05;;;;;;;4.07;2.60;;;9.80;81.90;;;;;;5055753;28;20025;-76
2022/11/05 02:01:32;;;;;;;5.20;2.85;;;9.80;81.80;;;;;;5054646;28;20029;-76
2022/11/05 02:04:05;;;;;;;4.88;2.60;;;9.80;81.70;;;;;;5055624;28;20049;-76
2022/11/05 02:06:34;;;;;;;4.57;2.65;;;9.70;81.80;;;;;;5054737;28;20025;-76
2022/11/05 02:09:07;;;;;;;4.00;2.63;;;9.70;81.90;;;;;;5055555;28;20021;-76
2022/11/05 02:11:33;;;;;;;6.72;2.92;;;9.60;82.00;;;;;;5055432;28;20030;-76
2022/11/05 02:13:59;;;;;;;4.20;2.83;;;9.60;82.20;;;;;;5055260;28;20048;-76
2022/11/05 02:17:02;;;;;;;5.68;2.80;;;9.60;82.40;;;;;;5055396;28;20021;-76
2022/11/05 02:19:31;;;;;;;5.63;2.85;;;9.50;82.50;;;;;;5055505;28;20025;-76
2022/11/05 02:21:56;;;;;;;6.20;3.20;;;9.50;82.70;;;;;;5055311;28;20030;-76
2022/11/05 02:24:55;;;;;;;6.47;3.50;;;9.50;82.70;;;;;;5055252;28;20029;-76
2022/11/05 02:27:58;;;;;;;8.05;3.35;;;9.40;82.90;;;;;;5055331;28;20028;-76
2022/11/05 02:30:29;;;;;;;7.32;3.05;;;9.40;83.10;;;;;;5055275;28;20029;-76
2022/11/05 02:33:12;;;;;;;11.45;3.42;;;9.40;83.00;;;;;;5055081;28;20029;-76
2022/11/05 02:35:40;;;;;;;6.57;3.47;;;9.40;84.00;;;;;;5055212;28;20053;-76
2022/11/05 02:38:19;;;;;;;5.82;3.40;;;9.40;83.20;;;;;;5054976;28;20022;-76
2022/11/05 02:40:57;;;;;;;9.27;4.07;;;9.30;83.20;;;;;;5037463;28;20033;-76
2022/11/05 02:43:47;;;;;;;6.60;3.20;;;9.30;83.40;;;;;;5054861;28;20472;-76
2022/11/05 02:46:18;;;;;;;7.18;3.60;;;9.30;83.40;;;;;;5055004;28;20081;-76
2022/11/05 02:49:05;;;;;;;9.00;3.33;;;9.20;83.60;;;;;;5054941;28;20080;-76
2022/11/05 02:51:47;;;;;;;5.75;3.17;;;9.30;83.60;;;;;;5054690;28;20028;-76
2022/11/05 02:54:31;;;;;;;5.68;3.30;;;9.30;83.60;;;;;;5054696;28;20025;-76
2022/11/05 02:56:59;;;;;;;9.60;3.53;;;9.30;83.50;;;;;;5054795;28;20014;-76
2022/11/05 02:59:24;;;;;;;7.13;2.85;;;9.20;83.60;;;;;;5054592;28;20022;-76
2022/11/05 03:01:51;;;;;;;6.82;3.13;;;9.20;83.60;;;;;;5054519;28;20034;-76
2022/11/05 03:04:20;;;;;;;6.05;2.97;;;9.20;83.60;;;;;;5054505;28;20030;-76
2022/11/05 03:06:58;;;;;;;4.72;2.90;;;9.20;83.60;;;;;;5054538;28;20025;-76
2022/11/05 03:09:23;;;;;;;4.68;2.88;;;9.10;83.90;;;;;;5054341;28;20040;-76
2022/11/05 03:12:11;;;;;;;6.00;3.20;;;9.10;84.10;;;;;;5054280;28;20026;-76
2022/11/05 03:14:51;;;;;;;5.30;3.10;;;9.00;84.00;;;;;;5053133;28;20053;-76
2022/11/05 03:17:37;;;;;;;9.55;3.17;;;9.00;84.20;;;;;;5054149;28;20022;-76
2022/11/05 03:20:24;;;;;;;7.07;3.08;;;9.00;84.40;;;;;;5036240;28;20091;-76
2022/11/05 03:23:31;;;;;;;5.47;3.20;;;9.00;84.40;;;;;;5054286;28;20036;-76
2022/11/05 03:26:07;;;;;;;6.30;3.40;;;9.00;84.30;;;;;;5053511;28;20064;-76
2022/11/05 03:28:36;;;;;;;6.15;3.05;;;9.00;84.30;;;;;;5053082;28;20092;-76
2022/11/05 03:31:03;;;;;;;6.18;3.17;;;9.00;84.20;;;;;;5054012;28;20104;-76
2022/11/05 03:33:32;;;;;;;7.80;3.42;;;9.00;84.20;;;;;;5036457;28;20049;-76
2022/11/05 03:36:02;;;;;;;6.95;3.25;;;8.90;84.20;;;;;;5053833;28;20028;-76
2022/11/05 03:38:31;;;;;;;6.30;3.58;;;8.90;84.10;;;;;;5053899;28;20037;-76
2022/11/05 03:41:03;;;;;;;8.48;3.72;;;8.90;84.20;;;;;;5052814;28;20022;-76
2022/11/05 03:43:34;;;;;;;8.13;4.00;;;8.80;84.10;;;;;;5036366;28;20036;-76
2022/11/05 03:46:19;;;;;;;8.30;3.80;;;8.80;84.10;;;;;;5053783;28;20028;-76
2022/11/05 03:48:51;;;;;;;9.27;4.47;;;8.70;84.20;;;;;;5053713;28;20022;-76
2022/11/05 03:51:29;;;;;;;8.27;4.47;;;8.70;84.30;;;;;;5053773;28;20018;-76
2022/11/05 03:53:58;;;;;;;6.30;3.72;;;8.70;84.30;;;;;;5053641;28;20025;-76
2022/11/05 03:56:35;;;;;;;6.68;3.85;;;8.70;85.40;;;;;;5052540;28;20028;-76
2022/11/05 03:59:03;;;;;;;6.70;4.10;;;8.70;84.60;;;;;;5053686;28;20026;-76
2022/11/05 04:01:30;;;;;;;5.95;3.70;;;8.60;84.70;;;;;;5053486;28;20021;-76
2022/11/05 04:03:55;;;;;;;10.32;4.35;;;8.70;84.60;;;;;;5053457;28;20489;-76
2022/11/05 04:14:34;;;;;;;8.27;3.95;;;8.70;84.60;;;;;;5053225;28;20109;-76
2022/11/05 04:17:06;;;;;;;5.82;3.63;;;8.60;84.20;;;;;;5053312;28;20026;-76
2022/11/05 04:25:07;;;;;;;9.10;4.55;;;8.60;84.60;;;;;;5053342;28;20063;-76
2022/11/05 04:27:32;;;;;;;6.80;3.85;;;8.50;84.70;;;;;;5035891;28;20029;-76
2022/11/05 04:32:58;;;;;;;9.65;4.35;;;8.50;84.60;;;;;;5053132;28;20072;-76
2022/11/05 04:35:24;;;;;;;6.75;3.88;;;8.50;84.50;;;;;;5053128;28;20419;-76
2022/11/05 04:37:50;;;;;;;10.55;4.78;;;8.50;84.70;;;;;;5053094;28;20028;-76
2022/11/05 04:40:16;;;;;;;6.88;4.03;;;8.50;84.80;;;;;;5053081;28;20049;-76
2022/11/05 04:42:41;;;;;;;6.32;3.95;;;8.50;84.90;;;;;;5053041;28;20043;-76
2022/11/05 04:45:07;;;;;;;8.45;4.18;;;8.50;84.60;;;;;;5053032;28;20038;-76
2022/11/05 04:47:33;;;;;;;7.18;4.00;;;8.50;84.50;;;;;;5052972;28;20060;-76
2022/11/05 04:49:58;;;;;;;11.38;4.20;;;8.50;84.60;;;;;;5052973;28;20038;-76
2022/11/05 04:52:24;;;;;;;7.20;4.00;;;8.40;84.50;;;;;;5052880;28;20064;-76
2022/11/05 04:54:50;;;;;;;11.48;4.53;;;8.40;84.30;;;;;;5052915;28;20044;-76
2022/11/05 04:57:15;;;;;;;6.82;4.15;;;8.40;84.50;;;;;;5052921;28;20033;-76
2022/11/05 04:59:41;;;;;;;8.20;4.28;;;8.30;84.50;;;;;;5052874;28;20033;-76
2022/11/05 05:02:06;;;;;;;6.82;4.45;;;8.30;84.50;;;;;;5052859;28;20109;-76
2022/11/05 05:04:32;;;;;;;9.95;4.75;;;8.40;84.60;;;;;;5052816;28;20029;-76
2022/11/05 05:06:58;;;;;;;11.63;5.05;;;8.30;84.60;;;;;;5052830;28;20101;-76
2022/11/05 05:09:23;;;;;;;7.45;4.95;;;8.30;84.60;;;;;;5052730;28;20086;-76
2022/11/05 05:11:49;;;;;;;10.85;4.78;;;8.30;84.50;;;;;;5035386;28;20109;-76
2022/11/05 05:14:14;;;;;;;6.78;4.63;;;8.30;84.60;;;;;;5035237;28;20133;-76
2022/11/05 05:16:40;;;;;;;9.73;4.80;;;8.30;84.50;;;;;;5052746;28;20033;-76
2022/11/05 05:19:05;;;;;;;12.20;5.22;;;8.20;84.40;;;;;;5035349;28;20045;-76
2022/11/05 05:21:41;;;;;;;9.48;5.00;;;8.20;84.40;;;;;;5052668;28;20040;-76
2022/11/05 05:24:15;;;;;;;10.15;6.15;;;8.20;84.50;;;;;;5036925;28;20030;-76
2022/11/05 05:26:44;;;;;;;8.57;5.20;;;8.20;84.70;;;;;;5052630;28;20044;-76
2022/11/05 05:29:10;;;;;;;11.40;5.50;;;8.20;84.70;;;;;;5052633;28;20133;-76
2022/11/05 05:31:36;;;;;;;11.32;5.70;;;8.20;84.70;;;;;;5051531;28;20045;-76
2022/11/05 05:34:03;;;;;;;10.02;5.80;;;8.20;84.70;;;;;;5052584;28;20033;-76
2022/11/05 05:36:28;;;;;;;9.25;5.55;;;8.20;84.60;;;;;;5035323;28;20034;-76
2022/11/05 05:38:54;;;;;;;9.32;5.85;;;8.20;84.70;;;;;;5035263;28;20085;-76
2022/11/05 05:41:20;;;;;;;8.10;5.25;;;8.20;85.10;;;;;;5052584;28;20089;-76
2022/11/05 05:43:46;;;;;;;9.02;5.72;;;8.10;84.90;;;;;;5056077;28;20017;-76
2022/11/05 05:46:14;;;;;;;10.93;5.65;;;8.20;84.80;;;;;;5054957;28;20036;-76
2022/11/05 05:48:41;;;;;;;10.32;5.65;;;8.10;84.80;;;;;;5055958;28;20053;-76
2022/11/05 05:51:10;;;;;;;13.10;6.20;;;8.10;84.80;;;;;;5055952;28;20077;-76
2022/11/05 05:53:35;;;;;;;9.95;6.03;;;8.10;84.90;;;;;;5054707;28;20025;-76
2022/11/05 05:56:01;;;;;;;9.95;6.03;;;8.10;85.00;;;;;;5038448;28;20033;-76
2022/11/05 05:58:32;;;;;;;11.60;5.55;;;8.10;85.20;;;;;;5055770;28;20032;-76
2022/11/05 06:01:08;;;;;;;10.07;5.88;;;8.00;85.10;;;;;;5055791;28;20025;-76
2022/11/05 06:03:34;;;;;;;13.15;6.00;;;8.00;85.10;;;;;;5055730;28;20026;-76
2022/11/05 06:06:08;;;;;;;11.27;6.00;;;8.00;85.40;;;;;;5055657;28;20057;-76
2022/11/05 06:08:34;;;;;;;12.00;6.53;;;8.00;85.30;;;;;;5055554;28;20021;-76
2022/11/05 06:11:01;;;;;;;11.88;5.95;;;8.00;85.40;;;;;;5055542;28;20062;-77
2022/11/05 06:13:27;;;;;;;11.60;6.40;;;8.00;85.40;;;;;;5055244;28;20050;-76
2022/11/05 06:15:58;;;;;;;13.55;6.75;;;8.10;85.30;;;;;;5037960;28;20083;-77
2022/11/05 06:18:24;;;;;;;10.35;5.63;;;8.00;85.20;;;;;;5055586;28;20080;-77
2022/11/05 06:20:49;;;;;;;12.23;6.05;;;8.10;85.20;;;;;;5037821;28;20033;-77
2022/11/05 06:23:15;;;;;;;8.80;5.93;;;8.00;84.90;;;;;;5055321;28;20108;-76
2022/11/05 06:25:40;;;;;;;14.52;6.53;;;8.00;85.00;;;;;;5037798;28;20030;-77
2022/11/05 06:28:06;;;;;;;10.88;6.30;;;7.90;85.10;;;;;;5055230;28;20033;-77
2022/11/05 06:30:31;;;;;;;11.32;6.57;;;7.80;84.60;;;;;;5055164;28;20033;-77
2022/11/05 06:33:02;;;;;;;15.30;6.75;;;7.80;84.70;;;;;;5037606;28;20034;-77
2022/11/05 06:35:27;;;;;;;13.52;6.20;;;7.80;84.90;;;;;;5037695;28;20056;-77
2022/11/05 06:38:01;;;;;;;12.38;5.80;;;7.70;85.20;;;;;;5037512;28;20029;-77
2022/11/05 06:40:27;;;;;;;11.60;5.93;;;7.60;85.30;;;;;;5054153;28;20033;-77
2022/11/05 06:42:53;;;;;;;12.50;6.30;;;7.60;85.50;;;;;;5053937;28;20028;-77
2022/11/05 06:45:19;;;;;;;12.60;6.05;;;7.70;86.50;;;;;;5054897;28;20081;-77
2022/11/05 06:47:45;;;;;;;14.93;6.13;;;7.60;85.60;;;;;;5054847;28;20388;-77
2022/11/05 06:50:11;;;;;;;15.32;6.90;;;7.60;85.50;;;;;;5054789;28;20033;-77
2022/11/05 06:52:36;;;;;;;14.15;7.07;;;7.60;85.70;;;;;;5054214;28;20034;-77
2022/11/05 06:55:03;;;;;;;12.48;6.53;;;7.60;85.70;;;;;;5037322;28;20018;-77
2022/11/05 06:57:28;;;;;;;11.27;6.00;;;7.50;86.10;;;;;;5053626;28;20014;-77
2022/11/05 06:59:54;;;;;;;11.20;6.05;;;7.50;86.30;;;;;;5054618;28;20070;-77
2022/11/05 07:02:19;;;;;;;12.20;6.28;;;7.50;86.40;;;;;;5054529;28;20041;-77
2022/11/05 07:04:45;;;;;;;11.50;6.57;;;7.40;86.60;;;;;;5037170;28;20030;-77
2022/11/05 07:07:11;;;;;;;16.23;6.68;;;7.50;86.40;;;;;;5054480;28;20037;-77
2022/11/05 07:09:41;;;;;;;16.38;7.43;;;7.40;86.70;;;;;;5036953;28;20037;-77
2022/11/05 07:12:08;;;;;;;12.05;6.78;;;7.30;86.90;;;;;;5054352;28;20025;-77
2022/11/05 07:14:34;;;;;;;11.55;6.55;;;7.40;87.00;;;;;;5053131;28;20050;-77
2022/11/05 07:16:59;;;;;;;14.60;7.50;;;7.40;86.80;;;;;;5036902;28;20098;-77
2022/11/05 07:19:25;;;;;;;12.38;6.60;;;7.40;86.70;;;;;;5036774;28;20037;-78
2022/11/05 07:21:51;;;;;;;13.20;6.53;;;7.40;86.80;;;;;;5036684;28;20033;-77
2022/11/05 07:24:17;;;;;;;11.70;6.82;;;7.50;86.60;;;;;;5054122;28;20033;-77
2022/11/05 07:26:42;;;;;;;13.98;6.72;;;7.50;86.70;;;;;;5054104;28;20109;-77
2022/11/05 07:29:08;;;;;;;12.77;6.55;;;7.50;86.80;;;;;;5036715;28;20084;-77
2022/11/05 07:31:33;;;;;;;13.02;6.60;;;7.50;86.80;;;;;;5036540;28;20030;-77
2022/11/05 07:33:59;;;;;;;12.35;6.95;;;7.50;87.00;;;;;;5052988;28;20388;-77
2022/11/05 07:36:25;;;;;;;16.75;7.22;;;7.50;87.30;;;;;;5053951;28;20021;-77
2022/11/05 07:38:51;;;;;;;13.40;6.68;;;7.50;87.40;;;;;;5053800;28;20041;-77
2022/11/05 07:41:17;;;;;;;13.77;6.80;;;7.50;87.60;;;;;;5036540;28;20044;-76
2022/11/05 07:43:42;;;;;;;14.00;6.65;;;7.50;87.60;;;;;;5053753;28;20049;-77
2022/11/05 07:46:08;;;;;;;13.85;7.22;;;7.60;88.10;;;;;;5053780;28;20029;-77
2022/11/05 07:48:34;;;;;;;12.70;6.93;;;7.60;88.20;;;;;;5053686;28;20030;-77
2022/11/05 07:50:59;;;;;;;14.73;7.53;;;7.60;88.40;;;;;;5053655;28;20029;-77
2022/11/05 07:53:25;;;;;;;12.13;6.90;;;7.70;88.00;;;;;;5053540;28;20037;-77
2022/11/05 07:55:51;;;;;;;12.57;6.93;;;7.80;88.00;;;;;;5053596;28;20048;-77
2022/11/05 07:58:18;;;;;;;11.77;6.70;;;7.80;87.80;;;;;;5036069;28;20032;-77
2022/11/05 08:00:44;;;;;;;12.98;6.95;;;7.90;88.60;;;;;;5053564;28;20044;-77
2022/11/05 08:03:13;;;;;;;12.23;6.95;;;8.00;88.10;;;;;;5053517;28;20093;-77
2022/11/05 08:05:43;;;;;;;19.45;8.15;;;8.10;87.90;;;;;;5052661;28;20031;-78
2022/11/05 08:08:10;;;;;;;13.30;6.93;;;8.50;87.70;;;;;;5036562;28;20029;-77
2022/11/05 08:10:37;;;;;;;11.07;7.03;;;9.00;87.20;;;;;;5053387;28;20481;-77
2022/11/05 08:13:04;;;;;;;14.27;7.05;;;9.60;87.00;;;;;;5053067;28;20075;-77
2022/11/05 08:15:29;;;;;;;13.23;6.60;;;10.30;83.50;;;;;;5036226;28;20041;-77
2022/11/05 08:18:04;;;;;;;11.65;5.90;;;11.00;82.10;;;;;;5053276;28;20032;-77
2022/11/05 08:20:30;;;;;;;13.50;6.05;;;11.60;79.30;;;;;;5053263;28;20040;-78
2022/11/05 08:22:56;;;;;;;11.38;5.55;;;12.00;78.70;;;;;;5053251;28;20021;-77
2022/11/05 08:25:22;;;;;;;8.18;5.30;;;12.30;75.80;;;;;;5053222;28;20568;-77
2022/11/05 08:27:58;;;;;;;10.90;5.90;;;12.70;75.40;;;;;;5053156;28;20088;-77
2022/11/05 08:30:24;;;;;;;10.25;5.82;;;12.90;73.50;;;;;;5052313;28;20025;-77
2022/11/05 08:32:50;;;;;;;8.30;5.20;;;13.10;72.70;;;;;;5053057;28;20025;-77
2022/11/05 08:35:15;;;;;;;8.90;5.50;;;12.90;72.40;;;;;;5053096;28;20385;-77
2022/11/05 08:37:41;;;;;;;11.98;5.38;;;12.80;71.80;;;;;;5035713;28;20053;-77
2022/11/05 08:40:07;;;;;;;9.05;4.95;;;13.00;72.40;;;;;;5035665;28;20041;-77
2022/11/05 08:42:33;;;;;;;11.10;5.28;;;13.30;71.90;;;;;;5035789;28;20021;-77
2022/11/05 08:44:58;;;;;;;10.38;5.43;;;13.70;70.70;;;;;;5035769;28;20508;-77
2022/11/05 08:47:24;;;;;;;8.18;5.20;;;13.80;69.80;;;;;;5052972;28;20037;-77
2022/11/05 08:49:50;;;;;;;9.23;5.38;;;13.80;69.40;;;;;;5052980;28;20034;-77
2022/11/05 08:52:15;;;;;;;10.48;4.97;;;14.00;69.80;;;;;;5035480;28;20052;-77
2022/11/05 08:54:42;;;;;;;10.80;5.13;;;13.90;69.30;;;;;;5052961;28;20520;-77
2022/11/05 08:57:08;;;;;;;9.55;5.30;;;13.70;69.00;;;;;;5051937;28;20081;-77
2022/11/05 08:59:34;;;;;;;12.13;5.35;;;13.40;69.70;;;;;;5052910;28;20052;-77
2022/11/05 09:02:00;;;;;;;12.00;5.10;;;13.00;70.50;;;;;;5035451;28;20034;-77
2022/11/05 09:04:25;;;;;;;7.90;5.32;;;12.90;71.80;;;;;;5052715;28;20040;-77
2022/11/05 09:06:51;;;;;;;10.93;5.68;;;12.80;73.20;;;;;;5035454;28;20036;-77
2022/11/05 09:09:17;;;;;;;10.20;6.03;;;12.80;72.60;;;;;;5052710;28;20036;-77
2022/11/05 09:11:42;;;;;;;10.13;5.82;;;12.70;72.90;;;;;;5035235;28;20038;-77
2022/11/05 09:14:08;;;;;;;11.38;5.35;;;12.50;73.10;;;;;;5035183;28;20084;-77
2022/11/05 09:16:35;;;;;;;10.93;5.47;;;12.40;73.60;;;;;;5037474;28;20030;-77
2022/11/05 09:19:03;;;;;;;9.52;5.50;;;12.40;74.60;;;;;;5056579;28;20013;-77
2022/11/05 09:21:29;;;;;;;11.48;5.60;;;12.60;75.10;;;;;;5056445;28;20026;-77
2022/11/05 09:23:55;;;;;;;10.10;5.20;;;12.60;74.40;;;;;;5056483;28;20085;-77
2022/11/05 09:26:20;;;;;;;10.63;5.57;;;12.60;74.30;;;;;;5056387;28;20076;-78
2022/11/05 09:28:46;;;;;;;11.43;5.60;;;12.60;74.30;;;;;;5056326;28;20021;-78
2022/11/05 09:31:12;;;;;;;10.57;5.18;;;12.60;74.40;;;;;;5056310;28;20048;-77
2022/11/05 09:33:39;;;;;;;9.25;5.80;;;12.60;74.50;;;;;;5056197;28;20032;-77
2022/11/05 09:36:06;;;;;;;9.75;5.00;;;12.50;74.20;;;;;;5056204;28;20022;-77
2022/11/05 09:38:34;;;;;;;9.40;5.40;;;12.40;74.60;;;;;;5056117;28;20029;-77
2022/11/05 09:41:01;;;;;;;10.05;4.93;;;12.40;74.70;;;;;;5056180;28;20025;-77
2022/11/05 09:43:32;;;;;;;9.70;5.57;;;12.70;74.80;;;;;;5056072;28;20036;-77
2022/11/05 09:46:03;;;;;;;9.27;5.60;;;12.80;73.40;;;;;;5056262;28;20017;-77
2022/11/05 09:48:31;;;;;;;8.68;5.43;;;12.70;74.40;;;;;;5056027;28;20025;-78
2022/11/05 09:50:57;;;;;;;9.50;5.10;;;12.70;75.30;;;;;;5055952;28;20025;-77
2022/11/05 09:53:23;;;;;;;10.98;5.70;;;12.60;73.80;;;;;;5055948;28;20014;-77
2022/11/05 09:55:55;;;;;;;9.23;5.47;;;12.40;74.40;;;;;;5038333;28;20029;-77
2022/11/05 09:58:30;;;;;;;10.47;5.47;;;12.20;75.50;;;;;;5056015;28;20093;-78
2022/11/05 10:00:57;;;;;;;9.18;5.43;;;12.10;75.90;;;;;;5055803;28;20026;-77
2022/11/05 10:03:24;;;;;;;11.27;5.43;;;12.10;76.10;;;;;;5054687;28;20033;-77
2022/11/05 10:05:51;;;;;;;10.70;5.90;;;12.00;76.20;;;;;;5038173;28;20064;-77
2022/11/05 10:08:27;;;;;;;9.85;5.25;;;11.90;76.30;;;;;;5055570;28;20048;-77
2022/11/05 10:10:55;;;;;;;10.50;5.43;;;11.90;76.80;;;;;;5055748;28;20026;-78
2022/11/05 10:13:39;;;;;;;9.55;5.22;;;12.00;77.20;;;;;;5055284;28;20060;-77
2022/11/05 10:16:11;;;;;;;10.88;4.93;;;12.00;76.30;;;;;;5054397;28;20033;-77
2022/11/05 10:18:40;;;;;;;8.73;5.25;;;12.00;76.30;;;;;;5055474;28;20017;-77
2022/11/05 10:21:06;;;;;;;11.13;5.32;;;12.00;76.30;;;;;;5055492;28;20056;-77
2022/11/05 10:23:32;;;;;;;12.25;5.15;;;12.10;77.20;;;;;;5054266;28;20040;-77
2022/11/05 10:26:06;;;;;;;10.70;4.68;;;12.20;76.80;;;;;;5055323;28;20034;-77
2022/11/05 10:28:33;;;;;;;9.10;5.10;;;12.40;75.50;;;;;;5054457;28;20029;-77
2022/11/05 10:31:02;;;;;;;9.95;4.70;;;12.40;76.10;;;;;;5055207;28;20025;-77
2022/11/05 10:33:50;;;;;;;6.78;4.55;;;12.50;75.10;;;;;;5054970;28;20025;-78
2022/11/05 10:36:30;;;;;;;10.60;4.85;;;12.60;75.90;;;;;;5040124;28;20029;-77
2022/11/05 10:39:16;;;;;;;8.98;4.90;;;12.60;75.30;;;;;;5055078;28;20032;-77
2022/11/05 10:42:07;;;;;;;7.70;4.20;;;12.50;76.00;;;;;;5055053;28;20018;-77
2022/11/05 10:44:52;;;;;;;7.30;4.82;;;12.50;75.90;;;;;;5055068;28;20029;-77
2022/11/05 10:47:42;;;;;;;8.18;4.68;;;12.60;75.60;;;;;;5053878;28;20068;-77
2022/11/05 10:50:16;;;;;;;7.22;4.28;;;12.40;75.40;;;;;;5053891;28;20037;-77
2022/11/05 10:53:06;;;;;;;9.02;4.00;;;12.30;75.80;;;;;;5054872;28;20036;-77
2022/11/05 10:55:36;;;;;;;11.15;4.90;;;12.30;76.80;;;;;;5054775;28;20024;-77
2022/11/05 10:58:17;;;;;;;9.48;4.93;;;12.30;76.70;;;;;;5054681;28;20047;-77
2022/11/05 11:00:58;;;;;;;8.27;4.47;;;12.30;76.60;;;;;;5054623;28;20021;-77
2022/11/05 11:03:46;;;;;;;9.70;4.57;;;12.30;76.70;;;;;;5054628;28;20044;-78
2022/11/05 11:06:21;;;;;;;11.02;4.00;;;12.30;77.20;;;;;;5054561;28;20044;-77
2022/11/05 11:08:48;;;;;;;8.80;4.28;;;12.30;77.60;;;;;;5054431;28;20076;-77
2022/11/05 11:11:25;;;;;;;10.20;4.15;;;12.20;76.70;;;;;;5037175;28;20026;-78
2022/11/05 11:13:57;;;;;;;10.52;3.90;;;12.30;77.00;;;;;;5054219;28;20050;-77
2022/11/05 11:16:25;;;;;;;7.32;4.57;;;12.20;76.20;;;;;;5036958;28;20097;-77
2022/11/05 11:18:59;;;;;;;8.43;4.10;;;12.20;76.40;;;;;;5054298;28;20181;-77
2022/11/05 11:21:27;;;;;;;10.57;4.38;;;12.20;76.30;;;;;;5054252;28;20032;-77
2022/11/05 11:24:05;;;;;;;7.95;4.47;;;12.10;76.00;;;;;;5054198;28;20032;-77
2022/11/05 11:26:39;;;;;;;7.40;4.47;;;12.10;76.70;;;;;;5054190;28;20025;-77
2022/11/05 11:29:04;;;;;;;7.35;3.60;;;12.10;76.60;;;;;;5054124;28;20064;-77
2022/11/05 11:31:32;;;;;;;10.20;4.10;;;12.10;75.70;;;;;;5053935;28;20029;-77
2022/11/05 11:34:27;;;;;;;7.72;3.72;;;12.00;76.10;;;;;;5053966;28;20049;-77
2022/11/05 11:37:06;;;;;;;7.68;3.92;;;12.00;75.70;;;;;;5042568;28;20030;-77
2022/11/05 11:39:32;;;;;;;7.30;3.97;;;12.00;76.10;;;;;;5053871;28;20037;-77
2022/11/05 11:42:04;;;;;;;5.80;3.47;;;12.00;76.50;;;;;;5053893;28;20029;-77
2022/11/05 11:44:35;;;;;;;9.40;4.18;;;12.00;76.90;;;;;;5053883;28;20021;-77
2022/11/05 11:47:10;;;;;;;8.60;4.20;;;12.00;77.30;;;;;;5036439;28;20081;-77
2022/11/05 11:49:41;;;;;;;7.70;4.40;;;12.10;77.30;;;;;;5053728;28;20097;-77
2022/11/05 11:52:20;;;;;;;7.10;4.10;;;12.10;76.80;;;;;;5053644;28;20030;-77
2022/11/05 11:54:45;;;;;;;10.00;4.65;;;12.20;76.90;;;;;;5053664;28;20037;-77
2022/11/05 11:57:46;;;;;;;10.00;4.10;;;12.20;76.40;;;;;;5036087;28;20044;-77
2022/11/05 12:00:13;;;;;;;8.68;4.05;;;12.10;76.30;;;;;;5053675;28;20029;-77
2022/11/05 12:03:09;;;;;;;11.23;4.38;;;12.10;76.40;;;;;;5053494;28;20029;-77
2022/11/05 12:06:01;;;;;;;8.38;3.83;;;12.20;76.50;;;;;;5053528;28;20447;-77
2022/11/05 12:08:40;;;;;;;8.20;4.18;;;12.20;76.90;;;;;;5052417;28;20029;-77
2022/11/05 12:11:24;;;;;;;11.55;4.80;;;12.20;76.70;;;;;;5053415;28;20036;-77
2022/11/05 12:13:58;;;;;;;7.22;3.83;;;12.20;77.20;;;;;;5053087;28;20044;-77
2022/11/05 12:16:29;;;;;;;11.32;4.57;;;12.10;76.40;;;;;;5053383;28;20022;-77
2022/11/05 12:19:15;;;;;;;9.38;4.70;;;12.10;77.10;;;;;;5053458;28;20021;-77
2022/11/05 12:21:46;;;;;;;9.25;4.47;;;12.10;76.70;;;;;;5053251;28;20052;-77
2022/11/05 12:24:36;;;;;;;11.35;5.00;;;12.10;76.70;;;;;;5035798;28;20032;-77
2022/11/05 12:27:29;;;;;;;9.57;4.72;;;12.10;78.60;;;;;;5053400;28;20025;-77
2022/11/05 12:30:06;;;;;;;8.82;4.47;;;12.10;76.70;;;;;;5053195;28;20044;-78
2022/11/05 12:32:38;;;;;;;7.15;4.85;;;12.10;77.50;;;;;;5053032;28;20030;-77
2022/11/05 12:35:14;;;;;;;14.20;5.22;;;12.00;77.90;;;;;;5053112;28;20090;-78
2022/11/05 12:38:08;;;;;;;11.60;5.97;;;12.10;78.40;;;;;;5053115;28;20022;-77
2022/11/05 12:40:51;;;;;;;9.20;5.07;;;12.10;77.90;;;;;;5053152;28;20073;-77
2022/11/05 12:43:32;;;;;;;13.25;5.68;;;12.10;77.90;;;;;;5053177;28;20085;-77
2022/11/05 12:46:08;;;;;;;9.57;5.15;;;12.10;77.90;;;;;;5053213;28;20026;-77
2022/11/05 12:48:39;;;;;;;10.68;5.72;;;12.10;77.70;;;;;;5053172;28;20047;-77
2022/11/05 12:51:24;;;;;;;9.18;4.75;;;12.20;77.50;;;;;;5054357;28;20036;-77
2022/11/05 12:54:33;;;;;;;9.05;5.05;;;12.20;77.60;;;;;;5056938;28;20036;-77
2022/11/05 12:57:02;;;;;;;10.93;5.07;;;12.40;77.00;;;;;;5057091;28;20017;-77
2022/11/05 12:59:47;;;;;;;9.25;4.70;;;12.40;77.30;;;;;;5055865;28;20035;-77
2022/11/05 13:02:39;;;;;;;11.55;4.90;;;12.50;76.40;;;;;;5056872;28;20029;-77
2022/11/05 13:05:42;;;;;;;11.40;5.10;;;12.50;76.70;;;;;;5056949;28;20032;-77
2022/11/05 13:08:15;;;;;;;8.98;4.43;;;12.50;76.80;;;;;;5035399;28;20042;-77
2022/11/05 13:11:04;;;;;;;8.05;4.32;;;12.50;77.10;;;;;;5056763;28;20496;-77
2022/11/05 13:13:41;;;;;;;11.23;4.80;;;12.50;76.60;;;;;;5055456;28;20104;-77
2022/11/05 13:16:23;;;;;;;11.18;5.35;;;12.50;76.00;;;;;;5055598;28;20014;-77
2022/11/05 13:18:56;;;;;;;10.40;4.63;;;12.40;76.60;;;;;;5056633;28;20041;-77
2022/11/05 13:21:23;;;;;;;11.00;4.93;;;12.40;77.20;;;;;;5056601;28;20022;-77
2022/11/05 13:24:14;;;;;;;10.05;4.78;;;12.40;76.70;;;;;;5055519;28;20056;-77
2022/11/05 13:27:12;;;;;;;9.88;4.93;;;12.40;76.50;;;;;;5055542;28;20175;-77
2022/11/05 13:29:47;;;;;;;9.10;4.38;;;12.40;76.50;;;;;;5010118;28;20042;-77
2022/11/05 13:32:38;;;;;;;9.93;4.55;;;12.40;76.50;;;;;;5056242;28;20028;-77
2022/11/05 13:35:12;;;;;;;8.65;4.47;;;12.50;76.50;;;;;;5055411;28;20081;-77
2022/11/05 13:41:10;;;;;;;8.88;4.10;;;12.50;76.50;;;;;;5056384;28;20032;-77
2022/11/05 13:44:09;;;;;;;9.02;3.97;;;12.50;76.30;;;;;;5056264;28;20033;-77
2022/11/05 13:46:37;;;;;;;7.03;3.50;;;12.60;76.90;;;;;;5056095;28;20036;-77
2022/11/05 13:49:32;;;;;;;11.43;3.65;;;12.60;76.30;;;;;;5056030;28;20092;-77
2022/11/05 13:52:19;;;;;;;4.57;2.70;;;12.50;74.70;;;;;;4996907;28;20034;-77
2022/11/05 13:54:51;;;;;;;5.07;2.72;;;12.50;75.20;;;;;;5054887;28;20098;-77